Time;durP1;ratioP1;P1;durP2;ratioP2;P2;SDS_P1;SDS_P2;PMS_P1;PMS_P2;Temp;Humidity;BMP_temperature;BMP_pressure;BME280_temperature;BME280_humidity;BME280_pressure;Samples;Min_cycle;Max_cycle;Signal;HPM_P1;HPM_P2
2021/08/10 04:15:14;;;;;;;5.97;3.33;;;;;;;11.79;97.67;99011.78;5960925;23;21068;-81
2021/08/10 04:17:41;;;;;;;6.97;3.97;;;;;;;11.82;97.42;99012.63;4915618;29;20036;-79
2021/08/10 04:20:07;;;;;;;7.88;3.38;;;;;;;11.83;97.69;99021.28;4916869;29;20115;-71
2021/08/10 04:22:33;;;;;;;7.00;4.07;;;;;;;11.80;97.56;99016.13;4916724;29;20032;-79
2021/08/10 04:24:58;;;;;;;4.97;3.75;;;;;;;11.90;97.40;99022.03;4916768;29;20032;-79
2021/08/10 04:27:23;;;;;;;5.47;3.40;;;;;;;12.02;96.44;99020.03;4916470;29;20033;-71
2021/08/10 04:29:48;;;;;;;6.38;3.30;;;;;;;12.13;96.52;99029.34;4917149;29;20059;-79
2021/08/10 04:32:14;;;;;;;6.10;3.10;;;;;;;12.17;95.82;99028.41;4916188;29;20103;-71
2021/08/10 04:34:40;;;;;;;5.15;3.38;;;;;;;12.17;95.50;99036.19;4916456;29;20099;-71
2021/08/10 04:37:05;;;;;;;5.88;3.20;;;;;;;12.19;95.41;99042.22;4916526;29;20028;-71
2021/08/10 04:39:31;;;;;;;7.78;3.20;;;;;;;12.19;95.25;99042.22;4916494;29;20028;-79
2021/08/10 04:41:56;;;;;;;6.20;3.22;;;;;;;12.27;95.02;99043.75;4916254;29;20107;-79
2021/08/10 04:44:22;;;;;;;7.47;3.38;;;;;;;12.37;94.48;99049.63;4916375;29;20035;-74
2021/08/10 04:46:48;;;;;;;9.93;3.95;;;;;;;12.49;94.32;99044.19;4914979;29;20024;-80
2021/08/10 04:49:14;;;;;;;3.65;2.83;;;;;;;12.45;93.97;99047.72;4916525;29;20470;-79
2021/08/10 04:51:40;;;;;;;6.20;3.30;;;;;;;12.60;94.15;99054.34;4916128;29;20112;-78
2021/08/10 04:54:05;;;;;;;5.75;3.17;;;;;;;12.57;93.22;99047.47;4916308;29;20123;-72
2021/08/10 04:56:31;;;;;;;4.43;2.95;;;;;;;12.63;93.58;99050.81;4916185;29;20079;-74
2021/08/10 04:58:56;;;;;;;8.68;4.13;;;;;;;12.44;93.84;99056.41;4916046;29;20024;-78
2021/08/10 05:01:21;;;;;;;7.53;3.53;;;;;;;12.40;94.13;99051.31;4915876;29;20032;-80
2021/08/10 05:03:47;;;;;;;8.57;3.40;;;;;;;12.46;93.68;99049.44;4916063;29;20099;-79
2021/08/10 05:06:12;;;;;;;5.00;3.63;;;;;;;12.52;93.46;99045.84;4915875;29;20040;-80
2021/08/10 05:08:37;;;;;;;5.55;3.67;;;;;;;12.49;93.88;99038.97;4915983;29;20206;-71
2021/08/10 05:11:03;;;;;;;5.47;3.70;;;;;;;12.65;93.53;99049.03;4915933;29;20017;-79
2021/08/10 05:13:28;;;;;;;4.95;3.63;;;;;;;12.72;92.89;99042.81;4915768;29;20481;-78
2021/08/10 05:15:54;;;;;;;5.55;3.67;;;;;;;12.76;93.09;99047.03;4915738;29;20043;-79
2021/08/10 05:18:19;;;;;;;5.82;4.13;;;;;;;12.73;93.24;99052.34;4915764;29;20028;-78
2021/08/10 05:20:45;;;;;;;5.20;3.22;;;;;;;12.69;93.27;99045.47;4915800;29;20024;-78
2021/08/10 05:23:11;;;;;;;4.00;3.22;;;;;;;12.75;93.32;99047.94;4915611;29;20032;-79
2021/08/10 05:25:36;;;;;;;5.55;3.55;;;;;;;12.83;93.18;99043.44;4915687;29;20032;-78
2021/08/10 05:28:01;;;;;;;5.47;3.60;;;;;;;12.88;92.84;99036.38;4915773;29;20035;-78
2021/08/10 05:30:27;;;;;;;4.97;3.72;;;;;;;12.91;92.52;99041.53;4915726;29;20032;-79
2021/08/10 05:32:52;;;;;;;4.93;3.28;;;;;;;12.91;92.64;99051.91;4915471;29;20031;-71
2021/08/10 05:35:17;;;;;;;5.60;3.75;;;;;;;13.02;92.13;99057.72;4915498;29;20027;-73
2021/08/10 05:37:43;;;;;;;4.40;3.50;;;;;;;13.04;91.94;99053.31;4914532;29;20466;-71
2021/08/10 05:40:08;;;;;;;6.82;3.50;;;;;;;13.16;91.30;99053.94;4915632;29;20047;-70
2021/08/10 05:42:34;;;;;;;5.65;3.20;;;;;;;13.21;91.56;99065.94;4915362;29;20035;-71
2021/08/10 05:44:59;;;;;;;5.75;3.45;;;;;;;13.34;90.88;99062.19;4915585;29;20079;-70
2021/08/10 05:47:25;;;;;;;9.60;3.53;;;;;;;13.32;90.56;99068.31;4915581;29;20036;-78
2021/08/10 05:49:50;;;;;;;6.53;3.63;;;;;;;13.47;90.40;99067.94;4915551;29;20035;-72
2021/08/10 05:52:15;;;;;;;5.80;3.35;;;;;;;13.43;90.04;99081.06;4915357;29;20023;-72
2021/08/10 05:54:41;;;;;;;4.95;3.60;;;;;;;13.56;89.66;99072.91;4915655;29;20036;-70
2021/08/10 05:57:06;;;;;;;5.95;3.65;;;;;;;13.50;90.05;99067.88;4914126;29;20422;-70
2021/08/10 05:59:32;;;;;;;6.70;3.40;;;;;;;13.66;90.01;99062.25;4915498;29;20430;-70
2021/08/10 06:01:58;;;;;;;10.40;3.13;;;;;;;13.80;88.84;99076.63;4915368;29;20079;-73
2021/08/10 06:04:23;;;;;;;8.82;3.20;;;;;;;13.77;89.02;99070.63;4915307;29;20486;-70
2021/08/10 06:06:48;;;;;;;7.80;3.33;;;;;;;13.78;88.68;99072.34;4915551;29;20025;-78
2021/08/10 06:09:14;;;;;;;5.50;3.97;;;;;;;13.80;88.52;99071.44;4915502;29;20107;-72
2021/08/10 06:11:40;;;;;;;6.28;3.72;;;;;;;13.77;89.04;99065.44;4915485;29;20578;-80
2021/08/10 06:14:05;;;;;;;6.28;3.42;;;;;;;13.82;89.12;99069.63;4916961;29;20038;-77
2021/08/10 06:16:31;;;;;;;4.28;3.08;;;;;;;13.94;88.45;99073.66;4919080;29;20437;-72
2021/08/10 06:18:56;;;;;;;9.75;3.50;;;;;;;13.97;88.22;99072.72;4919359;29;20024;-70
2021/08/10 06:21:21;;;;;;;6.03;3.72;;;;;;;14.13;87.70;99069.66;4917406;29;20043;-79
2021/08/10 06:23:47;;;;;;;6.28;3.38;;;;;;;14.28;86.92;99064.91;4918931;29;20112;-72
2021/08/10 06:26:13;;;;;;;7.88;3.22;;;;;;;14.59;85.71;99063.16;4918645;29;20114;-70
2021/08/10 06:28:38;;;;;;;9.65;3.90;;;;;;;14.49;86.46;99060.88;4919039;29;20023;-70
2021/08/10 06:31:05;;;;;;;7.05;3.63;;;;;;;14.55;86.33;99066.78;4918638;29;20020;-70
2021/08/10 06:33:31;;;;;;;10.02;3.40;;;;;;;14.56;85.93;99068.47;4893791;29;20051;-70
2021/08/10 06:35:56;;;;;;;9.40;3.95;;;;;;;14.64;85.30;99063.88;4918646;29;20051;-70
2021/08/10 06:38:22;;;;;;;4.82;4.15;;;;;;;14.72;84.34;99065.41;4918661;29;20473;-78
2021/08/10 06:40:47;;;;;;;6.55;3.13;;;;;;;14.78;84.60;99067.81;4918526;29;20030;-78
2021/08/10 06:43:13;;;;;;;5.63;2.95;;;;;;;15.04;84.47;99060.06;4918475;29;20067;-78
2021/08/10 06:45:38;;;;;;;6.30;3.17;;;;;;;15.46;82.79;99062.16;4918502;29;20107;-78
2021/08/10 06:48:04;;;;;;;5.30;3.35;;;;;;;15.88;80.86;99054.66;4918536;29;20055;-78
2021/08/10 06:50:29;;;;;;;7.78;3.88;;;;;;;15.96;79.91;99057.00;4918471;29;20409;-78
2021/08/10 06:52:55;;;;;;;5.72;3.33;;;;;;;15.89;80.32;99055.50;4918245;29;20103;-78
2021/08/10 06:55:20;;;;;;;4.53;3.05;;;;;;;15.77;81.23;99055.94;4918284;29;20055;-80
2021/08/10 06:57:46;;;;;;;6.30;3.40;;;;;;;16.15;80.28;99059.81;4918224;29;20083;-70
2021/08/10 07:00:11;;;;;;;7.57;3.28;;;;;;;16.75;77.25;99047.16;4918165;29;20028;-78
2021/08/10 07:02:37;;;;;;;8.35;3.03;;;;;;;17.92;72.28;99046.72;4917910;29;20075;-80
2021/08/10 07:05:03;;;;;;;6.35;2.67;;;;;;;18.74;68.65;99044.78;4916709;29;20024;-78
2021/08/10 07:07:28;;;;;;;8.65;3.03;;;;;;;19.00;66.85;99057.53;4917961;29;20093;-80
2021/08/10 07:09:54;;;;;;;12.80;3.47;;;;;;;19.71;65.48;99044.41;4918000;29;20485;-78
2021/08/10 07:12:19;;;;;;;4.40;2.38;;;;;;;19.79;64.87;99040.53;4917821;29;20027;-78
2021/08/10 07:14:44;;;;;;;5.03;2.40;;;;;;;19.63;65.57;99036.06;4917934;29;20024;-80
2021/08/10 07:17:10;;;;;;;9.45;2.70;;;;;;;19.87;63.95;99033.09;4917825;29;20438;-80
2021/08/10 07:19:35;;;;;;;3.47;2.22;;;;;;;20.97;61.75;99037.69;4916521;29;20036;-73
2021/08/10 07:22:00;;;;;;;5.97;2.40;;;;;;;20.69;60.83;99033.94;4917613;29;20020;-73
2021/08/10 07:24:26;;;;;;;4.88;2.35;;;;;;;19.92;62.85;99038.94;4917708;29;20051;-73
2021/08/10 07:26:54;;;;;;;7.75;2.42;;;;;;;19.09;66.50;99035.19;4917667;29;20168;-77
2021/08/10 07:29:20;;;;;;;7.82;2.53;;;;;;;19.10;67.27;99030.78;4917652;29;20031;-77
2021/08/10 07:31:45;;;;;;;7.03;2.80;;;;;;;19.02;68.24;99018.06;4917734;29;20020;-77
2021/08/10 07:34:11;;;;;;;8.32;2.65;;;;;;;19.02;67.91;99018.06;4917628;29;20031;-78
2021/08/10 07:36:37;;;;;;;6.88;2.67;;;;;;;18.61;68.92;99023.44;4917568;29;20046;-70
2021/08/10 07:39:03;;;;;;;3.75;2.38;;;;;;;19.00;68.80;99025.13;4917437;29;20032;-71
2021/08/10 07:41:29;;;;;;;4.60;2.30;;;;;;;20.05;65.48;99026.88;4915959;29;20028;-72
2021/08/10 07:43:54;;;;;;;5.18;2.58;;;;;;;21.22;62.03;99022.16;4917423;29;20080;-73
2021/08/10 07:46:19;;;;;;;4.78;2.20;;;;;;;21.33;60.16;99018.13;4917290;29;20040;-73
2021/08/10 07:48:45;;;;;;;8.93;2.40;;;;;;;22.09;58.35;99013.53;4916240;29;20032;-72
2021/08/10 07:51:11;;;;;;;5.57;1.90;;;;;;;22.61;56.63;99009.47;4916898;29;20040;-72
2021/08/10 07:53:36;;;;;;;4.95;1.88;;;;;;;22.87;55.33;99007.78;4917159;29;20028;-73
2021/08/10 07:56:02;;;;;;;4.53;2.08;;;;;;;22.28;56.65;99003.56;4917040;29;20032;-73
2021/08/10 07:58:28;;;;;;;2.08;1.75;;;;;;;21.25;58.92;99005.34;4917172;29;20047;-73
2021/08/10 08:00:53;;;;;;;5.43;2.25;;;;;;;21.88;58.82;98991.09;4917044;29;20082;-73
2021/08/10 08:03:18;;;;;;;6.88;2.50;;;;;;;21.23;60.23;99000.19;4916926;29;20123;-72
2021/08/10 08:05:44;;;;;;;5.45;2.17;;;;;;;22.63;57.01;98997.88;4916840;29;20055;-73
2021/08/10 08:08:09;;;;;;;4.55;2.00;;;;;;;23.23;54.96;98992.19;4917055;29;20047;-73
2021/08/10 08:10:34;;;;;;;5.55;2.83;;;;;;;23.24;53.53;98999.16;4916857;29;20393;-73
2021/08/10 08:13:00;;;;;;;5.28;2.00;;;;;;;22.30;55.85;98985.00;4916824;29;20154;-73
2021/08/10 08:15:25;;;;;;;3.03;1.98;;;;;;;22.13;57.43;98993.94;4916731;29;20032;-71
2021/08/10 08:17:51;;;;;;;6.00;2.22;;;;;;;22.00;56.42;98977.13;4916925;29;20031;-71
2021/08/10 08:20:17;;;;;;;5.15;3.92;;;;;;;22.76;55.17;98990.81;4916691;29;20038;-71
2021/08/10 08:22:43;;;;;;;5.43;2.40;;;;;;;23.40;54.13;98982.28;4916631;29;20110;-79
2021/08/10 08:25:09;;;;;;;2.80;1.70;;;;;;;24.63;49.17;98986.06;4916519;29;20039;-80
2021/08/10 08:27:35;;;;;;;3.58;1.60;;;;;;;25.01;47.26;98985.91;4916613;29;20031;-79
2021/08/10 08:30:00;;;;;;;6.32;1.90;;;;;;;24.02;48.72;98987.75;4916683;29;20103;-80
2021/08/10 08:32:26;;;;;;;4.20;1.90;;;;;;;24.20;50.04;98989.09;4916409;29;20020;-80
2021/08/10 08:34:51;;;;;;;4.20;2.45;;;;;;;25.75;45.24;98978.59;4916523;29;20537;-79
2021/08/10 08:37:17;;;;;;;4.30;1.80;;;;;;;23.78;49.04;98993.78;4915945;29;20114;-79
2021/08/10 08:39:43;;;;;;;4.88;1.73;;;;;;;26.35;43.73;98980.09;4916388;29;20066;-79
2021/08/10 08:42:10;;;;;;;3.92;1.60;;;;;;;27.31;41.61;98987.34;4916140;29;20123;-79
2021/08/10 08:44:35;;;;;;;4.50;1.75;;;;;;;25.62;45.16;98977.81;4916495;29;20036;-71
2021/08/10 08:47:05;;;;;;;6.40;1.60;;;;;;;25.52;43.79;98974.19;4914972;29;20039;-71
2021/08/10 08:49:32;;;;;;;2.72;1.70;;;;;;;26.77;42.64;98980.25;4916335;29;20239;-71
2021/08/10 08:52:04;;;;;;;4.00;1.88;;;;;;;26.96;41.04;98984.91;4916201;29;20055;-71
2021/08/10 08:54:32;;;;;;;3.25;1.50;;;;;;;25.79;43.63;98982.72;4916025;29;20426;-71
2021/08/10 08:56:58;;;;;;;3.60;1.55;;;;;;;26.61;41.36;98985.13;4914854;29;20027;-71
2021/08/10 08:59:24;;;;;;;6.15;1.90;;;;;;;26.97;41.89;98983.09;4915922;29;20032;-71
2021/08/10 09:01:51;;;;;;;2.28;1.60;;;;;;;26.96;40.33;98994.72;4915871;29;20035;-71
2021/08/10 09:04:18;;;;;;;2.53;1.48;;;;;;;27.50;40.49;98996.44;4915659;29;20032;-71
2021/08/10 09:06:43;;;;;;;6.72;1.80;;;;;;;26.78;40.33;99002.38;4914550;29;20043;-71
2021/08/10 09:09:20;;;;;;;8.38;2.03;;;;;;;27.01;40.85;98997.84;4915938;29;20031;-71
2021/08/10 09:11:51;;;;;;;4.28;1.80;;;;;;;26.76;40.98;99010.47;4915672;29;20389;-71
2021/08/10 09:14:17;;;;;;;4.35;1.75;;;;;;;26.19;42.02;99006.16;4915821;29;20036;-71
2021/08/10 09:17:04;;;;;;;4.03;1.92;;;;;;;25.58;43.53;99001.09;4915672;29;20040;-71
2021/08/10 09:19:40;;;;;;;4.38;1.73;;;;;;;24.84;44.62;99011.00;4915588;29;20518;-71
2021/08/10 09:22:33;;;;;;;5.70;1.80;;;;;;;25.10;44.38;99005.63;4907408;29;20024;-78
2021/08/10 09:25:01;;;;;;;3.92;1.65;;;;;;;25.33;42.82;99007.41;4908790;29;20528;-79
2021/08/10 09:27:30;;;;;;;13.63;9.90;;;;;;;25.67;43.76;99004.84;4915378;29;20036;-79
2021/08/10 09:29:59;;;;;;;4.90;2.40;;;;;;;25.88;43.86;99007.72;4915491;29;20490;-78
2021/08/10 09:32:25;;;;;;;;;;;;;;;25.47;42.99;99002.88;4908325;29;20490;-78
2021/08/10 09:35:06;;;;;;;3.25;2.00;;;;;;;25.11;44.15;99002.03;4915644;29;19911;-78
2021/08/10 09:37:32;;;;;;;4.57;1.73;;;;;;;24.54;44.50;99003.47;4915416;29;20361;-78
2021/08/10 09:39:57;;;;;;;12.65;1.75;;;;;;;25.06;44.10;98998.84;4914255;29;20056;-78
2021/08/10 09:42:23;;;;;;;3.92;1.77;;;;;;;26.23;43.30;98993.47;4914895;29;20046;-78
2021/08/10 09:44:57;;;;;;;3.05;1.30;;;;;;;26.58;42.21;99001.31;4920347;29;20028;-78
2021/08/10 09:47:34;;;;;;;3.55;1.63;;;;;;;26.68;42.15;99002.25;4915017;29;20032;-79
2021/08/10 09:50:00;;;;;;;3.05;1.70;;;;;;;27.72;39.97;98991.03;4918421;29;20020;-79
2021/08/10 09:52:28;;;;;;;3.28;1.67;;;;;;;27.56;41.00;99004.78;4918936;29;20035;-78
2021/08/10 09:54:54;;;;;;;2.83;1.60;;;;;;;27.77;39.52;99001.28;4919286;29;20075;-79
2021/08/10 09:57:20;;;;;;;3.90;1.70;;;;;;;27.26;40.56;98997.53;4918962;29;20063;-79
2021/08/10 09:59:45;;;;;;;6.07;1.83;;;;;;;26.13;42.26;99001.34;4919178;29;20515;-78
2021/08/10 10:02:21;;;;;;;5.25;1.65;;;;;;;26.77;40.45;99001.53;4912027;29;20455;-79
2021/08/10 10:04:52;;;;;;;5.22;2.00;;;;;;;25.70;43.00;99003.78;4918703;29;20366;-79
2021/08/10 10:07:18;;;;;;;4.45;1.58;;;;;;;27.42;39.10;99003.25;4918846;29;20051;-78
2021/08/10 10:09:44;;;;;;;3.40;1.88;;;;;;;27.31;40.66;99002.47;4917839;29;20476;-78
2021/08/10 10:12:12;;;;;;;3.95;1.65;;;;;;;26.27;42.23;99003.75;4918682;29;20072;-79
2021/08/10 10:14:38;;;;;;;6.20;1.50;;;;;;;26.96;40.57;99005.34;4918836;29;20032;-79
2021/08/10 10:17:05;;;;;;;5.22;1.83;;;;;;;26.64;41.27;99003.47;4914519;29;20393;-78
2021/08/10 10:19:34;;;;;;;6.07;1.73;;;;;;;26.38;40.47;98995.75;4918658;29;20024;-78
2021/08/10 10:22:03;;;;;;;7.32;1.77;;;;;;;26.83;40.94;99000.19;4918459;29;20060;-79
2021/08/10 10:24:34;;;;;;;3.63;1.67;;;;;;;26.75;41.23;98995.50;4918400;29;20569;-78
2021/08/10 10:27:03;;;;;;;4.00;1.70;;;;;;;27.23;40.88;98995.13;4918672;29;20068;-79
2021/08/10 10:29:29;;;;;;;5.05;2.97;;;;;;;27.76;40.02;98987.13;4918682;29;20374;-78
2021/08/10 10:31:54;;;;;;;3.00;1.52;;;;;;;27.46;39.68;98995.00;4915452;29;20027;-78
2021/08/10 10:34:20;;;;;;;5.82;1.50;;;;;;;26.96;39.77;98992.06;4914461;29;20107;-79
2021/08/10 10:36:47;;;;;;;4.70;1.88;;;;;;;27.31;39.58;98991.81;4918344;29;20035;-79
2021/08/10 10:39:25;;;;;;;4.32;1.70;;;;;;;27.21;40.45;98999.72;4917107;29;20036;-79
2021/08/10 10:41:53;;;;;;;6.57;1.92;;;;;;;27.32;40.54;98991.72;4918216;29;20024;-77
2021/08/10 10:44:45;;;;;;;2.40;1.98;;;;;;;28.10;38.15;98992.22;4918285;29;20032;-77
2021/08/10 10:47:33;;;;;;;3.70;2.05;;;;;;;26.62;40.86;98994.78;4918212;29;20032;-77
2021/08/10 10:49:58;;;;;;;3.33;1.97;;;;;;;26.23;41.29;98991.66;4914040;29;20056;-77
2021/08/10 10:52:29;;;;;;;5.10;1.70;;;;;;;26.17;40.81;98981.53;4908522;29;20052;-77
2021/08/10 10:54:55;;;;;;;4.38;1.42;;;;;;;26.89;41.97;98979.25;4918271;29;20283;-74
2021/08/10 10:57:33;;;;;;;5.00;1.65;;;;;;;26.44;41.79;98989.13;4916591;29;20036;-74
2021/08/10 11:00:17;;;;;;;6.18;1.73;;;;;;;24.64;45.24;98987.75;4917781;29;20079;-74
2021/08/10 11:02:45;;;;;;;5.93;1.85;;;;;;;25.89;44.95;98978.38;4917596;29;20046;-74
2021/08/10 11:05:21;;;;;;;6.05;1.80;;;;;;;27.01;40.69;98981.88;4917738;29;20031;-74
2021/08/10 11:07:47;;;;;;;3.25;1.77;;;;;;;27.44;41.98;98978.34;4901565;29;20028;-74
2021/08/10 11:10:31;;;;;;;2.50;1.88;;;;;;;28.12;39.71;98974.25;4917883;29;20095;-74
2021/08/10 11:12:57;;;;;;;4.53;1.60;;;;;;;28.90;37.92;98976.16;4917579;29;20032;-74
2021/08/10 11:15:45;;;;;;;6.15;1.88;;;;;;;28.21;38.99;98973.44;4917428;29;20035;-74
2021/08/10 11:18:10;;;;;;;2.88;1.52;;;;;;;28.48;39.61;98977.34;4917636;29;20074;-73
2021/08/10 11:20:53;;;;;;;6.60;1.70;;;;;;;29.00;37.09;98964.69;4916801;29;20032;-74
2021/08/10 11:25:58;;;;;;;8.00;2.10;;;;;;;28.51;39.22;98969.94;4917416;29;20032;-74
2021/08/10 11:28:29;;;;;;;4.82;1.75;;;;;;;28.21;39.00;98965.47;4923764;29;20028;-74
2021/08/10 11:30:58;;;;;;;4.82;2.08;;;;;;;27.01;41.70;98968.56;4929160;29;20012;-74
2021/08/10 11:33:37;;;;;;;5.97;1.98;;;;;;;27.90;38.95;98965.47;4918369;29;20027;-79
2021/08/10 11:36:11;;;;;;;2.03;1.58;;;;;;;27.71;40.22;98965.38;4911048;29;20032;-79
2021/08/10 11:38:52;;;;;;;3.42;1.88;;;;;;;27.53;40.06;98966.91;4917500;29;20024;-74
2021/08/10 11:41:29;;;;;;;3.47;1.80;;;;;;;27.27;40.15;98972.63;4917104;29;20447;-74
2021/08/10 11:43:59;;;;;;;3.10;1.48;;;;;;;27.04;39.66;98977.16;4917309;29;20031;-73
2021/08/10 11:46:28;;;;;;;8.98;2.03;;;;;;;27.25;41.23;98969.22;4916157;29;20052;-73
2021/08/10 11:48:58;;;;;;;6.07;1.60;;;;;;;27.81;40.04;98963.59;4917279;29;20444;-74
2021/08/10 11:51:44;;;;;;;5.22;1.58;;;;;;;29.20;38.07;98961.03;4915654;29;20032;-74
2021/08/10 11:54:14;;;;;;;5.57;2.50;;;;;;;28.90;37.48;98960.16;4916776;29;20024;-78
2021/08/10 11:56:48;;;;;;;3.78;1.80;;;;;;;28.54;37.55;98963.50;4916410;29;20529;-80
2021/08/10 11:59:24;;;;;;;4.43;1.83;;;;;;;28.73;37.93;98958.19;4916795;29;20035;-75
2021/08/10 12:01:50;;;;;;;5.97;1.92;;;;;;;28.28;38.45;98963.94;4916756;29;20027;-75
2021/08/10 12:04:28;;;;;;;2.75;1.63;;;;;;;28.52;37.16;98955.59;4912517;29;20505;-74
2021/08/10 12:06:56;;;;;;;7.85;1.85;;;;;;;28.76;38.27;98951.72;4898349;29;20077;-75
2021/08/10 12:09:26;;;;;;;6.32;2.10;;;;;;;26.90;40.29;98959.66;4898010;29;20028;-74
2021/08/10 12:11:56;;;;;;;2.90;2.15;;;;;;;27.80;39.24;98950.41;4897152;29;20025;-75
2021/08/10 12:14:24;;;;;;;9.38;1.80;;;;;;;27.58;39.70;98952.22;4897836;29;20033;-75
2021/08/10 12:17:00;;;;;;;3.10;1.70;;;;;;;27.07;41.56;98960.09;4897758;29;20561;-74
2021/08/10 12:19:48;;;;;;;4.85;1.90;;;;;;;26.35;41.95;98961.47;4897852;29;20040;-74
2021/08/10 12:22:32;;;;;;;12.35;2.03;;;;;;;25.68;44.45;98949.97;4897677;29;20024;-74
2021/08/10 12:25:01;;;;;;;4.97;2.05;;;;;;;25.52;43.98;98952.94;4897761;29;20028;-75
2021/08/10 12:27:32;;;;;;;4.10;2.25;;;;;;;24.92;45.75;98954.78;4897873;29;20413;-80
2021/08/10 12:29:59;;;;;;;3.90;2.05;;;;;;;24.84;44.95;98947.38;4897719;29;20040;-74
2021/08/10 12:32:33;;;;;;;4.53;1.70;;;;;;;25.64;44.75;98938.75;4896350;29;20028;-74
2021/08/10 12:35:15;;;;;;;4.15;1.75;;;;;;;24.70;47.32;98938.75;4909530;29;20035;-80
2021/08/10 12:37:41;;;;;;;5.13;2.35;;;;;;;24.88;47.10;98940.06;4915310;29;20452;-74
2021/08/10 12:40:13;;;;;;;4.47;2.22;;;;;;;24.43;47.32;98936.34;4916505;29;20108;-80
2021/08/10 12:42:39;;;;;;;4.05;2.30;;;;;;;25.52;45.68;98932.56;4915601;29;20043;-80
2021/08/10 12:45:05;;;;;;;4.38;1.80;;;;;;;25.71;45.88;98931.13;4900168;29;20032;-80
2021/08/10 12:47:35;;;;;;;4.38;1.85;;;;;;;25.62;45.28;98927.38;4919770;29;20047;-79
2021/08/10 12:50:20;;;;;;;6.28;2.38;;;;;;;25.27;45.57;98925.63;4903998;29;20029;-79
2021/08/10 12:52:45;;;;;;;7.40;2.17;;;;;;;24.85;46.45;98927.00;4906556;29;20028;-80
2021/08/10 12:55:11;;;;;;;4.63;2.10;;;;;;;25.07;44.52;98921.00;4906110;29;20032;-80
2021/08/10 12:57:36;;;;;;;4.68;2.50;;;;;;;25.69;44.37;98925.97;4907464;29;20032;-79
2021/08/10 13:00:19;;;;;;;4.10;1.75;;;;;;;26.18;43.39;98919.47;4903950;29;20061;-81
2021/08/10 13:02:47;;;;;;;4.00;2.30;;;;;;;26.68;42.30;98917.19;4905744;29;20120;-80
2021/08/10 13:05:14;;;;;;;5.22;2.20;;;;;;;26.00;43.06;98916.44;4904971;29;20028;-79
2021/08/10 13:08:01;;;;;;;7.10;2.25;;;;;;;25.71;43.62;98913.41;4900468;29;20490;-74
2021/08/10 13:10:29;;;;;;;5.00;1.88;;;;;;;27.13;40.43;98903.75;4905724;29;20048;-75
2021/08/10 13:12:56;;;;;;;6.22;2.28;;;;;;;27.31;40.65;98896.84;4902528;29;20039;-80
2021/08/10 13:15:22;;;;;;;5.70;2.30;;;;;;;26.61;42.27;98902.72;4902584;29;20141;-80
2021/08/10 13:17:48;;;;;;;4.15;2.13;;;;;;;27.76;39.86;98893.91;4905553;29;20039;-75
2021/08/10 13:20:16;;;;;;;3.22;1.63;;;;;;;27.33;41.23;98889.59;4894094;29;20478;-74
2021/08/10 13:22:56;;;;;;;4.97;2.00;;;;;;;27.14;41.16;98892.13;4895046;29;20024;-74
2021/08/10 13:25:26;;;;;;;6.68;2.28;;;;;;;26.64;41.41;98889.16;4894863;29;20087;-79
2021/08/10 13:28:06;;;;;;;8.05;2.17;;;;;;;25.25;44.71;98901.06;4895050;29;20066;-75
2021/08/10 13:30:32;;;;;;;4.32;1.90;;;;;;;25.40;44.65;98903.50;4889621;29;20382;-80
2021/08/10 13:33:09;;;;;;;6.50;2.10;;;;;;;25.49;45.33;98900.13;4886956;29;20533;-80
2021/08/10 13:35:36;;;;;;;4.03;1.80;;;;;;;26.70;41.51;98894.00;4887633;29;20055;-75
2021/08/10 13:38:02;;;;;;;6.20;1.75;;;;;;;27.58;40.49;98884.84;4888406;29;20245;-80
2021/08/10 13:40:28;;;;;;;4.68;1.80;;;;;;;27.28;41.15;98889.16;4888947;29;20127;-79
2021/08/10 13:42:53;;;;;;;5.28;1.75;;;;;;;27.76;40.03;98888.59;4889124;29;20079;-80
2021/08/10 13:45:23;;;;;;;4.00;1.80;;;;;;;26.09;42.97;98901.59;4888234;29;20032;-76
2021/08/10 13:47:50;;;;;;;6.45;2.00;;;;;;;25.46;44.57;98895.06;4888457;29;20028;-74
2021/08/10 13:50:16;;;;;;;5.60;2.00;;;;;;;25.68;44.38;98889.78;4895930;29;20033;-74
2021/08/10 13:52:41;;;;;;;4.70;1.95;;;;;;;25.15;44.97;98886.81;4896784;29;20425;-74
2021/08/10 13:55:07;;;;;;;6.57;2.05;;;;;;;25.14;46.18;98874.47;4895524;29;20043;-74
2021/08/10 13:57:32;;;;;;;6.10;2.17;;;;;;;24.27;47.16;98884.44;4896775;29;20032;-75
2021/08/10 13:59:57;;;;;;;7.03;2.00;;;;;;;24.39;47.03;98881.88;4903976;29;20043;-74
2021/08/10 14:02:23;;;;;;;2.65;1.92;;;;;;;23.63;48.93;98891.63;4906498;29;20032;-76
2021/08/10 14:04:48;;;;;;;3.83;2.38;;;;;;;24.27;47.35;98887.09;4903415;29;20029;-76
2021/08/10 14:07:14;;;;;;;11.00;2.10;;;;;;;24.91;47.70;98883.31;4900834;29;20028;-76
2021/08/10 14:09:39;;;;;;;3.22;1.70;;;;;;;25.85;45.79;98886.66;4900874;29;20143;-76
2021/08/10 14:12:07;;;;;;;5.78;2.47;;;;;;;26.13;44.36;98887.13;4905190;29;20034;-76
2021/08/10 14:14:32;;;;;;;7.53;2.20;;;;;;;26.52;42.88;98882.22;4902577;29;20025;-76
2021/08/10 14:16:58;;;;;;;6.32;2.80;;;;;;;26.38;43.79;98876.19;4905356;29;20043;-76
2021/08/10 14:19:23;;;;;;;6.13;2.35;;;;;;;26.40;43.73;98882.22;4906635;29;20156;-74
2021/08/10 14:21:49;;;;;;;3.20;1.90;;;;;;;26.77;42.81;98881.03;4901550;29;20513;-74
2021/08/10 14:24:14;;;;;;;2.60;1.92;;;;;;;26.89;42.02;98875.56;4900928;29;20036;-74
2021/08/10 14:26:39;;;;;;;5.38;1.90;;;;;;;25.54;43.90;98880.22;4902430;29;20073;-74
2021/08/10 14:29:05;;;;;;;5.47;2.45;;;;;;;25.81;44.06;98877.22;4903618;29;20525;-74
2021/08/10 14:31:30;;;;;;;8.70;2.42;;;;;;;24.67;47.83;98881.53;4906474;29;20036;-74
2021/08/10 14:33:56;;;;;;;4.90;2.33;;;;;;;24.78;46.81;98876.28;4905541;29;20112;-80
2021/08/10 14:36:21;;;;;;;3.42;1.90;;;;;;;25.30;46.98;98875.00;4908478;29;20031;-80
2021/08/10 14:38:46;;;;;;;3.15;2.03;;;;;;;25.26;46.68;98868.25;4910254;29;20028;-80
2021/08/10 14:41:12;;;;;;;5.20;1.92;;;;;;;25.34;46.75;98876.47;4905216;29;20119;-80
2021/08/10 14:43:37;;;;;;;6.13;1.80;;;;;;;25.21;45.54;98886.31;4909693;29;20040;-80
2021/08/10 14:46:05;;;;;;;7.40;2.33;;;;;;;24.70;47.27;98885.75;4907014;29;20035;-80
2021/08/10 14:48:31;;;;;;;6.55;2.17;;;;;;;25.23;45.94;98884.38;4904748;29;20042;-74
2021/08/10 14:50:56;;;;;;;4.38;2.08;;;;;;;24.94;47.37;98883.06;4908127;29;20390;-80
2021/08/10 14:53:22;;;;;;;5.43;1.90;;;;;;;25.31;46.91;98887.31;4908631;29;20079;-80
2021/08/10 14:55:47;;;;;;;5.05;1.88;;;;;;;25.40;46.94;98883.09;4904933;29;20764;-79
2021/08/10 14:58:13;;;;;;;3.70;2.25;;;;;;;25.57;47.02;98881.78;4906193;29;20084;-79
2021/08/10 15:00:38;;;;;;;4.90;1.90;;;;;;;25.34;45.45;98875.63;4905219;29;20131;-74
2021/08/10 15:03:03;;;;;;;4.72;1.60;;;;;;;25.44;45.53;98881.91;4905747;29;20055;-75
2021/08/10 15:05:29;;;;;;;5.28;2.03;;;;;;;24.83;47.72;98878.59;4903358;29;20056;-74
2021/08/10 15:07:54;;;;;;;9.77;2.22;;;;;;;24.80;47.39;98877.03;4903542;29;20038;-74
2021/08/10 15:10:20;;;;;;;6.15;2.05;;;;;;;24.84;46.79;98873.16;4907363;29;20387;-79
2021/08/10 15:12:45;;;;;;;4.30;1.90;;;;;;;24.80;46.29;98873.50;4909047;29;20020;-74
2021/08/10 15:15:10;;;;;;;5.82;2.20;;;;;;;25.33;46.07;98873.91;4909309;29;20410;-74
2021/08/10 15:17:36;;;;;;;4.95;2.40;;;;;;;25.72;45.05;98875.28;4903109;29;20135;-74
2021/08/10 15:20:04;;;;;;;9.18;2.33;;;;;;;26.03;44.73;98872.88;4909393;29;20572;-74
2021/08/10 15:22:29;;;;;;;2.90;1.75;;;;;;;26.24;42.65;98876.47;4904577;29;20025;-79
2021/08/10 15:24:55;;;;;;;6.03;2.38;;;;;;;25.62;44.23;98869.00;4907527;29;20031;-79
2021/08/10 15:27:21;;;;;;;5.38;1.80;;;;;;;25.68;44.56;98868.53;4907693;29;20512;-79
2021/08/10 15:29:47;;;;;;;11.77;2.25;;;;;;;25.80;44.00;98867.59;4904315;29;20039;-74
2021/08/10 15:32:12;;;;;;;6.20;2.10;;;;;;;26.03;43.15;98867.56;4908638;29;20037;-75
2021/08/10 15:34:38;;;;;;;14.75;2.30;;;;;;;25.83;44.71;98872.66;4906414;29;20093;-74
2021/08/10 15:37:03;;;;;;;7.45;2.15;;;;;;;25.56;44.78;98864.19;4908010;29;20091;-74
2021/08/10 15:39:29;;;;;;;3.40;1.70;;;;;;;25.23;43.77;98860.50;4908942;29;20466;-74
2021/08/10 15:41:55;;;;;;;2.88;1.70;;;;;;;25.21;44.85;98862.47;4912383;29;20059;-74
2021/08/10 15:44:20;;;;;;;3.60;1.80;;;;;;;24.77;45.83;98856.03;4907423;29;20035;-80
2021/08/10 15:46:47;;;;;;;7.78;1.98;;;;;;;24.53;46.44;98863.16;4906295;29;20120;-80
2021/08/10 15:49:12;;;;;;;5.93;2.20;;;;;;;24.45;46.88;98865.53;4905498;29;20032;-79
2021/08/10 15:51:38;;;;;;;7.63;2.10;;;;;;;24.79;46.38;98862.06;4901916;29;20363;-79
2021/08/10 15:54:04;;;;;;;5.47;1.70;;;;;;;24.54;46.40;98854.25;4906810;29;20119;-80